sensor_id;sensor_type;location;lat;lon;timestamp;temperature;humidity
42147;DHT22;27815;43.410;11.852;2023-12-29T00:02:04;11.90;76.00
42147;DHT22;27815;43.410;11.852;2023-12-29T00:06:07;11.80;75.90
42147;DHT22;27815;43.410;11.852;2023-12-29T00:10:10;11.80;75.90
42147;DHT22;27815;43.410;11.852;2023-12-29T00:14:13;11.70;76.00
42147;DHT22;27815;43.410;11.852;2023-12-29T00:18:16;11.70;76.10
42147;DHT22;27815;43.410;11.852;2023-12-29T00:22:19;11.70;76.10
42147;DHT22;27815;43.410;11.852;2023-12-29T00:26:24;11.70;76.10
42147;DHT22;27815;43.410;11.852;2023-12-29T00:30:33;11.60;76.20
42147;DHT22;27815;43.410;11.852;2023-12-29T00:34:56;11.60;76.30
42147;DHT22;27815;43.410;11.852;2023-12-29T00:38:59;11.60;76.30
42147;DHT22;27815;43.410;11.852;2023-12-29T00:43:02;11.50;76.40
42147;DHT22;27815;43.410;11.852;2023-12-29T00:47:06;11.50;76.60
42147;DHT22;27815;43.410;11.852;2023-12-29T00:51:09;11.40;76.60
42147;DHT22;27815;43.410;11.852;2023-12-29T00:55:12;11.30;76.70
42147;DHT22;27815;43.410;11.852;2023-12-29T00:59:15;11.30;76.80
42147;DHT22;27815;43.410;11.852;2023-12-29T01:03:18;11.30;77.10
42147;DHT22;27815;43.410;11.852;2023-12-29T01:07:26;11.20;77.10
42147;DHT22;27815;43.410;11.852;2023-12-29T01:11:29;11.20;77.20
42147;DHT22;27815;43.410;11.852;2023-12-29T01:15:32;11.20;77.50
42147;DHT22;27815;43.410;11.852;2023-12-29T01:19:35;11.20;77.70
42147;DHT22;27815;43.410;11.852;2023-12-29T01:23:38;11.20;77.80
42147;DHT22;27815;43.410;11.852;2023-12-29T01:27:40;11.20;77.90
42147;DHT22;27815;43.410;11.852;2023-12-29T01:31:44;11.20;77.80
42147;DHT22;27815;43.410;11.852;2023-12-29T01:35:47;11.10;77.60
42147;DHT22;27815;43.410;11.852;2023-12-29T01:39:50;11.00;77.70
42147;DHT22;27815;43.410;11.852;2023-12-29T01:47:59;11.10;78.30
42147;DHT22;27815;43.410;11.852;2023-12-29T01:52:03;11.00;78.50
42147;DHT22;27815;43.410;11.852;2023-12-29T01:56:06;11.10;78.60
42147;DHT22;27815;43.410;11.852;2023-12-29T02:00:11;11.10;78.70
42147;DHT22;27815;43.410;11.852;2023-12-29T02:04:17;11.00;78.80
42147;DHT22;27815;43.410;11.852;2023-12-29T02:08:23;11.00;78.80
42147;DHT22;27815;43.410;11.852;2023-12-29T02:12:26;11.00;78.90
42147;DHT22;27815;43.410;11.852;2023-12-29T02:16:46;11.10;78.70
42147;DHT22;27815;43.410;11.852;2023-12-29T02:20:54;10.80;78.30
42147;DHT22;27815;43.410;11.852;2023-12-29T02:24:57;10.60;78.50
42147;DHT22;27815;43.410;11.852;2023-12-29T02:29:02;10.50;78.40
42147;DHT22;27815;43.410;11.852;2023-12-29T02:33:12;10.50;78.40
42147;DHT22;27815;43.410;11.852;2023-12-29T02:37:19;10.20;78.20
42147;DHT22;27815;43.410;11.852;2023-12-29T02:41:22;9.90;78.40
42147;DHT22;27815;43.410;11.852;2023-12-29T02:45:27;9.90;78.40
42147;DHT22;27815;43.410;11.852;2023-12-29T02:49:30;9.90;78.40
42147;DHT22;27815;43.410;11.852;2023-12-29T02:53:34;9.80;78.20
42147;DHT22;27815;43.410;11.852;2023-12-29T02:57:37;9.60;78.20
42147;DHT22;27815;43.410;11.852;2023-12-29T03:01:41;9.60;78.60
42147;DHT22;27815;43.410;11.852;2023-12-29T03:05:44;9.70;79.30
42147;DHT22;27815;43.410;11.852;2023-12-29T03:09:47;9.90;79.60
42147;DHT22;27815;43.410;11.852;2023-12-29T03:13:50;10.00;79.30
42147;DHT22;27815;43.410;11.852;2023-12-29T03:17:53;9.80;79.10
42147;DHT22;27815;43.410;11.852;2023-12-29T03:21:56;9.70;79.00
42147;DHT22;27815;43.410;11.852;2023-12-29T03:25:59;9.50;79.00
42147;DHT22;27815;43.410;11.852;2023-12-29T03:30:02;9.50;79.20
42147;DHT22;27815;43.410;11.852;2023-12-29T03:34:06;9.50;79.30
42147;DHT22;27815;43.410;11.852;2023-12-29T03:38:09;9.60;79.10
42147;DHT22;27815;43.410;11.852;2023-12-29T03:42:12;9.60;79.10
42147;DHT22;27815;43.410;11.852;2023-12-29T03:46:20;9.60;79.00
42147;DHT22;27815;43.410;11.852;2023-12-29T03:50:23;9.60;79.10
42147;DHT22;27815;43.410;11.852;2023-12-29T03:54:26;9.60;79.30
42147;DHT22;27815;43.410;11.852;2023-12-29T03:58:29;9.70;79.60
42147;DHT22;27815;43.410;11.852;2023-12-29T04:02:32;9.80;79.90
42147;DHT22;27815;43.410;11.852;2023-12-29T04:06:35;9.90;80.20
42147;DHT22;27815;43.410;11.852;2023-12-29T04:10:38;10.10;80.40
42147;DHT22;27815;43.410;11.852;2023-12-29T04:14:40;10.30;80.40
42147;DHT22;27815;43.410;11.852;2023-12-29T04:18:45;10.40;80.40
42147;DHT22;27815;43.410;11.852;2023-12-29T04:22:48;10.50;80.50
42147;DHT22;27815;43.410;11.852;2023-12-29T04:26:51;10.60;80.40
42147;DHT22;27815;43.410;11.852;2023-12-29T04:30:54;10.70;80.30
42147;DHT22;27815;43.410;11.852;2023-12-29T04:34:57;10.90;80.10
42147;DHT22;27815;43.410;11.852;2023-12-29T04:39:00;11.00;80.00
42147;DHT22;27815;43.410;11.852;2023-12-29T04:43:03;11.00;79.70
42147;DHT22;27815;43.410;11.852;2023-12-29T04:47:06;11.10;79.60
42147;DHT22;27815;43.410;11.852;2023-12-29T04:51:10;11.20;79.40
42147;DHT22;27815;43.410;11.852;2023-12-29T04:55:13;11.30;79.20
42147;DHT22;27815;43.410;11.852;2023-12-29T04:59:16;11.20;78.70
42147;DHT22;27815;43.410;11.852;2023-12-29T05:03:19;10.80;78.00
42147;DHT22;27815;43.410;11.852;2023-12-29T05:07:24;10.40;78.20
42147;DHT22;27815;43.410;11.852;2023-12-29T05:11:27;10.10;78.10
42147;DHT22;27815;43.410;11.852;2023-12-29T05:15:30;9.90;78.40
42147;DHT22;27815;43.410;11.852;2023-12-29T05:19:33;9.80;78.60
42147;DHT22;27815;43.410;11.852;2023-12-29T05:23:36;9.80;78.80
42147;DHT22;27815;43.410;11.852;2023-12-29T05:27:38;9.80;78.80
42147;DHT22;27815;43.410;11.852;2023-12-29T05:31:41;9.80;78.80
42147;DHT22;27815;43.410;11.852;2023-12-29T05:35:44;9.80;78.70
42147;DHT22;27815;43.410;11.852;2023-12-29T05:39:48;9.60;79.00
42147;DHT22;27815;43.410;11.852;2023-12-29T05:43:50;9.50;79.10
42147;DHT22;27815;43.410;11.852;2023-12-29T05:47:54;9.40;79.20
42147;DHT22;27815;43.410;11.852;2023-12-29T05:51:57;9.40;79.30
42147;DHT22;27815;43.410;11.852;2023-12-29T05:56:00;9.40;79.40
42147;DHT22;27815;43.410;11.852;2023-12-29T06:00:03;9.40;79.40
42147;DHT22;27815;43.410;11.852;2023-12-29T06:04:13;9.50;79.40
42147;DHT22;27815;43.410;11.852;2023-12-29T06:08:16;9.50;79.30
42147;DHT22;27815;43.410;11.852;2023-12-29T06:12:19;9.40;79.50
42147;DHT22;27815;43.410;11.852;2023-12-29T06:16:22;9.40;79.60
42147;DHT22;27815;43.410;11.852;2023-12-29T06:20:26;9.30;79.70
42147;DHT22;27815;43.410;11.852;2023-12-29T06:24:28;9.40;79.80
42147;DHT22;27815;43.410;11.852;2023-12-29T06:28:31;9.50;79.70
42147;DHT22;27815;43.410;11.852;2023-12-29T06:32:34;9.50;79.60
42147;DHT22;27815;43.410;11.852;2023-12-29T06:36:38;9.60;79.60
42147;DHT22;27815;43.410;11.852;2023-12-29T06:40:41;9.70;79.40
42147;DHT22;27815;43.410;11.852;2023-12-29T06:44:44;9.70;79.40
42147;DHT22;27815;43.410;11.852;2023-12-29T06:48:46;9.80;79.30
42147;DHT22;27815;43.410;11.852;2023-12-29T06:52:51;9.80;79.30
42147;DHT22;27815;43.410;11.852;2023-12-29T06:56:53;9.80;79.20
42147;DHT22;27815;43.410;11.852;2023-12-29T07:00:56;9.90;79.30
42147;DHT22;27815;43.410;11.852;2023-12-29T07:04:59;9.90;79.20
42147;DHT22;27815;43.410;11.852;2023-12-29T07:09:03;9.90;79.30
42147;DHT22;27815;43.410;11.852;2023-12-29T07:13:06;10.00;79.30
42147;DHT22;27815;43.410;11.852;2023-12-29T07:17:10;10.10;79.30
42147;DHT22;27815;43.410;11.852;2023-12-29T07:21:14;10.20;79.20
42147;DHT22;27815;43.410;11.852;2023-12-29T07:25:21;10.10;79.20
42147;DHT22;27815;43.410;11.852;2023-12-29T07:29:24;10.10;79.30
42147;DHT22;27815;43.410;11.852;2023-12-29T07:33:27;10.00;79.40
42147;DHT22;27815;43.410;11.852;2023-12-29T07:37:31;10.00;79.30
42147;DHT22;27815;43.410;11.852;2023-12-29T07:41:34;10.00;79.40
42147;DHT22;27815;43.410;11.852;2023-12-29T07:45:36;9.90;79.40
42147;DHT22;27815;43.410;11.852;2023-12-29T07:49:43;9.90;79.40
42147;DHT22;27815;43.410;11.852;2023-12-29T07:53:46;9.90;79.60
42147;DHT22;27815;43.410;11.852;2023-12-29T07:57:49;10.00;79.50
42147;DHT22;27815;43.410;11.852;2023-12-29T08:01:51;10.10;79.40
42147;DHT22;27815;43.410;11.852;2023-12-29T08:05:55;10.00;79.40
42147;DHT22;27815;43.410;11.852;2023-12-29T08:09:59;10.00;79.60
42147;DHT22;27815;43.410;11.852;2023-12-29T08:14:02;10.00;79.60
42147;DHT22;27815;43.410;11.852;2023-12-29T08:18:05;10.00;79.70
42147;DHT22;27815;43.410;11.852;2023-12-29T08:22:09;10.10;79.50
42147;DHT22;27815;43.410;11.852;2023-12-29T08:26:12;10.20;79.40
42147;DHT22;27815;43.410;11.852;2023-12-29T08:30:15;10.20;79.40
42147;DHT22;27815;43.410;11.852;2023-12-29T08:34:19;10.10;79.50
42147;DHT22;27815;43.410;11.852;2023-12-29T08:38:22;10.20;79.50
42147;DHT22;27815;43.410;11.852;2023-12-29T08:42:25;10.30;79.40
42147;DHT22;27815;43.410;11.852;2023-12-29T08:46:30;10.40;79.30
42147;DHT22;27815;43.410;11.852;2023-12-29T08:50:33;10.40;79.40
42147;DHT22;27815;43.410;11.852;2023-12-29T08:54:36;10.50;79.50
42147;DHT22;27815;43.410;11.852;2023-12-29T08:58:40;10.50;79.60
42147;DHT22;27815;43.410;11.852;2023-12-29T09:02:44;10.60;79.60
42147;DHT22;27815;43.410;11.852;2023-12-29T09:06:47;10.70;79.50
42147;DHT22;27815;43.410;11.852;2023-12-29T09:10:50;10.80;79.50
42147;DHT22;27815;43.410;11.852;2023-12-29T09:14:53;11.00;79.50
42147;DHT22;27815;43.410;11.852;2023-12-29T09:18:56;11.10;79.40
42147;DHT22;27815;43.410;11.852;2023-12-29T09:22:59;11.30;79.10
42147;DHT22;27815;43.410;11.852;2023-12-29T09:27:02;11.40;78.90
42147;DHT22;27815;43.410;11.852;2023-12-29T09:31:05;11.40;78.80
42147;DHT22;27815;43.410;11.852;2023-12-29T09:35:09;11.30;78.80
42147;DHT22;27815;43.410;11.852;2023-12-29T09:39:12;11.30;78.70
42147;DHT22;27815;43.410;11.852;2023-12-29T09:43:15;11.20;78.70
42147;DHT22;27815;43.410;11.852;2023-12-29T09:47:23;11.30;78.60
42147;DHT22;27815;43.410;11.852;2023-12-29T09:51:26;11.50;78.50
42147;DHT22;27815;43.410;11.852;2023-12-29T09:55:30;11.60;78.40
42147;DHT22;27815;43.410;11.852;2023-12-29T09:59:38;11.70;78.30
42147;DHT22;27815;43.410;11.852;2023-12-29T10:03:43;11.80;78.20
42147;DHT22;27815;43.410;11.852;2023-12-29T10:07:47;12.00;77.90
42147;DHT22;27815;43.410;11.852;2023-12-29T10:11:51;12.10;77.80
42147;DHT22;27815;43.410;11.852;2023-12-29T10:16:07;12.10;77.20
42147;DHT22;27815;43.410;11.852;2023-12-29T10:24:34;12.30;76.20
42147;DHT22;27815;43.410;11.852;2023-12-29T10:28:37;12.40;76.00
42147;DHT22;27815;43.410;11.852;2023-12-29T10:32:40;12.50;75.70
42147;DHT22;27815;43.410;11.852;2023-12-29T10:36:49;12.60;75.50
42147;DHT22;27815;43.410;11.852;2023-12-29T10:40:53;12.70;75.40
42147;DHT22;27815;43.410;11.852;2023-12-29T10:45:05;12.80;75.30
42147;DHT22;27815;43.410;11.852;2023-12-29T10:49:13;12.80;75.00
42147;DHT22;27815;43.410;11.852;2023-12-29T10:53:16;12.80;74.70
42147;DHT22;27815;43.410;11.852;2023-12-29T10:57:21;12.90;74.60
42147;DHT22;27815;43.410;11.852;2023-12-29T11:01:24;13.00;74.50
42147;DHT22;27815;43.410;11.852;2023-12-29T11:05:28;13.00;74.30
42147;DHT22;27815;43.410;11.852;2023-12-29T11:09:32;13.00;74.40
42147;DHT22;27815;43.410;11.852;2023-12-29T11:13:36;13.10;74.10
42147;DHT22;27815;43.410;11.852;2023-12-29T11:17:41;13.10;73.90
42147;DHT22;27815;43.410;11.852;2023-12-29T11:21:54;13.20;73.80
42147;DHT22;27815;43.410;11.852;2023-12-29T11:25:58;13.20;73.60
42147;DHT22;27815;43.410;11.852;2023-12-29T11:30:03;13.20;73.40
42147;DHT22;27815;43.410;11.852;2023-12-29T11:38:24;13.30;73.30
42147;DHT22;27815;43.410;11.852;2023-12-29T11:42:35;13.40;73.30
42147;DHT22;27815;43.410;11.852;2023-12-29T11:46:44;13.40;72.90
42147;DHT22;27815;43.410;11.852;2023-12-29T11:50:47;13.40;72.30
42147;DHT22;27815;43.410;11.852;2023-12-29T11:54:51;13.50;72.60
42147;DHT22;27815;43.410;11.852;2023-12-29T11:58:54;13.60;72.60
42147;DHT22;27815;43.410;11.852;2023-12-29T12:02:57;13.80;72.30
42147;DHT22;27815;43.410;11.852;2023-12-29T12:07:01;14.00;72.10
42147;DHT22;27815;43.410;11.852;2023-12-29T12:15:32;14.00;71.30
42147;DHT22;27815;43.410;11.852;2023-12-29T12:19:35;14.00;71.20
42147;DHT22;27815;43.410;11.852;2023-12-29T12:23:39;14.00;71.10
42147;DHT22;27815;43.410;11.852;2023-12-29T12:27:43;14.00;70.80
42147;DHT22;27815;43.410;11.852;2023-12-29T12:36:00;14.10;70.90
42147;DHT22;27815;43.410;11.852;2023-12-29T12:40:03;14.10;70.60
42147;DHT22;27815;43.410;11.852;2023-12-29T12:44:14;14.10;70.50
42147;DHT22;27815;43.410;11.852;2023-12-29T12:48:23;14.20;70.10
42147;DHT22;27815;43.410;11.852;2023-12-29T12:52:33;14.30;69.20
42147;DHT22;27815;43.410;11.852;2023-12-29T12:56:36;14.40;69.20
42147;DHT22;27815;43.410;11.852;2023-12-29T13:00:39;14.50;68.80
42147;DHT22;27815;43.410;11.852;2023-12-29T13:04:45;14.50;68.90
42147;DHT22;27815;43.410;11.852;2023-12-29T13:08:50;14.50;68.30
42147;DHT22;27815;43.410;11.852;2023-12-29T13:12:56;14.40;68.00
42147;DHT22;27815;43.410;11.852;2023-12-29T13:17:12;14.30;67.80
42147;DHT22;27815;43.410;11.852;2023-12-29T13:21:17;14.20;68.00
42147;DHT22;27815;43.410;11.852;2023-12-29T13:25:21;14.20;68.40
42147;DHT22;27815;43.410;11.852;2023-12-29T13:29:27;14.20;68.50
42147;DHT22;27815;43.410;11.852;2023-12-29T13:33:59;14.20;68.50
42147;DHT22;27815;43.410;11.852;2023-12-29T13:38:28;14.30;68.60
42147;DHT22;27815;43.410;11.852;2023-12-29T13:42:37;14.30;68.70
42147;DHT22;27815;43.410;11.852;2023-12-29T13:46:42;14.30;68.50
42147;DHT22;27815;43.410;11.852;2023-12-29T13:50:46;14.40;68.20
42147;DHT22;27815;43.410;11.852;2023-12-29T13:54:50;14.40;68.00
42147;DHT22;27815;43.410;11.852;2023-12-29T13:58:53;14.40;67.40
42147;DHT22;27815;43.410;11.852;2023-12-29T14:03:01;14.40;67.20
42147;DHT22;27815;43.410;11.852;2023-12-29T14:07:08;14.30;66.90
42147;DHT22;27815;43.410;11.852;2023-12-29T14:11:12;14.20;66.60
42147;DHT22;27815;43.410;11.852;2023-12-29T14:15:15;14.20;66.70
42147;DHT22;27815;43.410;11.852;2023-12-29T14:19:18;14.20;66.50
42147;DHT22;27815;43.410;11.852;2023-12-29T14:23:21;14.10;66.70
42147;DHT22;27815;43.410;11.852;2023-12-29T14:27:24;14.10;66.00
42147;DHT22;27815;43.410;11.852;2023-12-29T14:31:27;14.10;65.70
42147;DHT22;27815;43.410;11.852;2023-12-29T14:35:30;14.00;65.70
42147;DHT22;27815;43.410;11.852;2023-12-29T14:39:34;14.00;65.40
42147;DHT22;27815;43.410;11.852;2023-12-29T14:43:37;14.00;65.70
42147;DHT22;27815;43.410;11.852;2023-12-29T14:47:43;14.10;66.10
42147;DHT22;27815;43.410;11.852;2023-12-29T14:51:51;14.10;65.90
42147;DHT22;27815;43.410;11.852;2023-12-29T14:55:56;14.00;65.20
42147;DHT22;27815;43.410;11.852;2023-12-29T14:59:59;14.10;65.40
42147;DHT22;27815;43.410;11.852;2023-12-29T15:04:02;14.10;65.70
42147;DHT22;27815;43.410;11.852;2023-12-29T15:08:05;14.10;66.00
42147;DHT22;27815;43.410;11.852;2023-12-29T15:12:08;14.10;66.10
42147;DHT22;27815;43.410;11.852;2023-12-29T15:16:11;14.10;66.30
42147;DHT22;27815;43.410;11.852;2023-12-29T15:20:14;14.00;66.40
42147;DHT22;27815;43.410;11.852;2023-12-29T15:24:16;14.00;66.60
42147;DHT22;27815;43.410;11.852;2023-12-29T15:28:19;14.00;66.70
42147;DHT22;27815;43.410;11.852;2023-12-29T15:32:23;13.90;66.80
42147;DHT22;27815;43.410;11.852;2023-12-29T15:36:26;13.80;66.90
42147;DHT22;27815;43.410;11.852;2023-12-29T15:40:29;13.70;67.00
42147;DHT22;27815;43.410;11.852;2023-12-29T15:44:32;13.70;66.90
42147;DHT22;27815;43.410;11.852;2023-12-29T15:48:36;13.60;67.00
42147;DHT22;27815;43.410;11.852;2023-12-29T15:52:39;13.50;67.10
42147;DHT22;27815;43.410;11.852;2023-12-29T15:56:42;13.50;67.30
42147;DHT22;27815;43.410;11.852;2023-12-29T16:00:45;13.40;67.30
42147;DHT22;27815;43.410;11.852;2023-12-29T16:04:48;13.30;67.30
42147;DHT22;27815;43.410;11.852;2023-12-29T16:08:51;13.20;67.40
42147;DHT22;27815;43.410;11.852;2023-12-29T16:12:56;13.20;67.40
42147;DHT22;27815;43.410;11.852;2023-12-29T16:16:59;13.10;67.50
42147;DHT22;27815;43.410;11.852;2023-12-29T16:21:02;13.10;67.50
42147;DHT22;27815;43.410;11.852;2023-12-29T16:25:06;13.10;67.50
42147;DHT22;27815;43.410;11.852;2023-12-29T16:29:09;13.00;67.60
42147;DHT22;27815;43.410;11.852;2023-12-29T16:33:12;13.00;67.60
42147;DHT22;27815;43.410;11.852;2023-12-29T16:37:15;12.90;67.50
42147;DHT22;27815;43.410;11.852;2023-12-29T16:41:19;12.90;67.60
42147;DHT22;27815;43.410;11.852;2023-12-29T16:45:25;12.90;67.50
42147;DHT22;27815;43.410;11.852;2023-12-29T16:49:30;12.80;67.60
42147;DHT22;27815;43.410;11.852;2023-12-29T16:53:35;12.70;67.60
42147;DHT22;27815;43.410;11.852;2023-12-29T16:57:38;12.80;67.50
42147;DHT22;27815;43.410;11.852;2023-12-29T17:01:41;12.80;67.30
42147;DHT22;27815;43.410;11.852;2023-12-29T17:05:44;12.80;67.20
42147;DHT22;27815;43.410;11.852;2023-12-29T17:09:47;12.80;67.20
42147;DHT22;27815;43.410;11.852;2023-12-29T17:13:50;12.80;67.20
42147;DHT22;27815;43.410;11.852;2023-12-29T17:17:53;12.80;67.10
42147;DHT22;27815;43.410;11.852;2023-12-29T17:21:56;12.70;66.90
42147;DHT22;27815;43.410;11.852;2023-12-29T17:26:01;12.70;66.90
42147;DHT22;27815;43.410;11.852;2023-12-29T17:30:04;12.70;66.90
42147;DHT22;27815;43.410;11.852;2023-12-29T17:34:08;12.70;66.90
42147;DHT22;27815;43.410;11.852;2023-12-29T17:38:11;12.60;66.90
42147;DHT22;27815;43.410;11.852;2023-12-29T17:42:14;12.60;66.90
42147;DHT22;27815;43.410;11.852;2023-12-29T17:46:17;12.60;67.00
42147;DHT22;27815;43.410;11.852;2023-12-29T17:50:21;12.50;66.90
42147;DHT22;27815;43.410;11.852;2023-12-29T17:54:24;12.50;66.90
42147;DHT22;27815;43.410;11.852;2023-12-29T17:58:28;12.40;66.80
42147;DHT22;27815;43.410;11.852;2023-12-29T18:02:31;12.50;66.90
42147;DHT22;27815;43.410;11.852;2023-12-29T18:06:34;12.40;66.90
42147;DHT22;27815;43.410;11.852;2023-12-29T18:10:37;12.40;67.00
42147;DHT22;27815;43.410;11.852;2023-12-29T18:14:40;12.40;67.00
42147;DHT22;27815;43.410;11.852;2023-12-29T18:18:44;12.30;67.00
42147;DHT22;27815;43.410;11.852;2023-12-29T18:22:49;12.30;66.90
42147;DHT22;27815;43.410;11.852;2023-12-29T18:26:52;12.20;66.90
42147;DHT22;27815;43.410;11.852;2023-12-29T18:30:56;12.20;67.00
42147;DHT22;27815;43.410;11.852;2023-12-29T18:34:59;12.10;67.10
42147;DHT22;27815;43.410;11.852;2023-12-29T18:39:02;12.10;67.10
42147;DHT22;27815;43.410;11.852;2023-12-29T18:43:05;12.10;67.10
42147;DHT22;27815;43.410;11.852;2023-12-29T18:47:08;12.00;67.20
42147;DHT22;27815;43.410;11.852;2023-12-29T18:51:13;12.00;67.30
42147;DHT22;27815;43.410;11.852;2023-12-29T18:55:18;12.00;67.20
42147;DHT22;27815;43.410;11.852;2023-12-29T18:59:23;12.00;67.20
42147;DHT22;27815;43.410;11.852;2023-12-29T19:03:26;12.00;67.30
42147;DHT22;27815;43.410;11.852;2023-12-29T19:07:29;12.00;67.30
42147;DHT22;27815;43.410;11.852;2023-12-29T19:11:32;12.00;67.30
42147;DHT22;27815;43.410;11.852;2023-12-29T19:15:35;12.00;67.40
42147;DHT22;27815;43.410;11.852;2023-12-29T19:19:38;12.00;67.30
42147;DHT22;27815;43.410;11.852;2023-12-29T19:23:41;12.00;67.20
42147;DHT22;27815;43.410;11.852;2023-12-29T19:27:44;12.00;67.20
42147;DHT22;27815;43.410;11.852;2023-12-29T19:31:48;12.00;67.10
42147;DHT22;27815;43.410;11.852;2023-12-29T19:35:51;12.00;67.20
42147;DHT22;27815;43.410;11.852;2023-12-29T19:39:54;12.00;67.20
42147;DHT22;27815;43.410;11.852;2023-12-29T19:43:57;12.00;67.10
42147;DHT22;27815;43.410;11.852;2023-12-29T19:48:00;12.00;67.00
42147;DHT22;27815;43.410;11.852;2023-12-29T19:52:05;12.00;67.00
42147;DHT22;27815;43.410;11.852;2023-12-29T19:56:08;12.00;67.00
42147;DHT22;27815;43.410;11.852;2023-12-29T20:00:11;12.10;66.90
42147;DHT22;27815;43.410;11.852;2023-12-29T20:04:15;12.10;66.90
42147;DHT22;27815;43.410;11.852;2023-12-29T20:08:18;12.10;66.90
42147;DHT22;27815;43.410;11.852;2023-12-29T20:12:21;12.10;66.90
42147;DHT22;27815;43.410;11.852;2023-12-29T20:16:26;12.10;66.80
42147;DHT22;27815;43.410;11.852;2023-12-29T20:20:29;12.10;66.90
42147;DHT22;27815;43.410;11.852;2023-12-29T20:24:31;12.10;66.90
42147;DHT22;27815;43.410;11.852;2023-12-29T20:28:34;12.10;66.90
42147;DHT22;27815;43.410;11.852;2023-12-29T20:32:37;12.20;67.00
42147;DHT22;27815;43.410;11.852;2023-12-29T20:36:40;12.10;67.00
42147;DHT22;27815;43.410;11.852;2023-12-29T20:40:43;12.10;66.90
42147;DHT22;27815;43.410;11.852;2023-12-29T20:44:46;11.90;67.30
42147;DHT22;27815;43.410;11.852;2023-12-29T20:48:50;11.80;67.70
42147;DHT22;27815;43.410;11.852;2023-12-29T20:52:54;11.80;67.80
42147;DHT22;27815;43.410;11.852;2023-12-29T20:56:56;12.00;67.70
42147;DHT22;27815;43.410;11.852;2023-12-29T21:00:59;12.00;67.60
42147;DHT22;27815;43.410;11.852;2023-12-29T21:05:03;12.00;67.60
42147;DHT22;27815;43.410;11.852;2023-12-29T21:09:13;12.10;67.50
42147;DHT22;27815;43.410;11.852;2023-12-29T21:13:21;11.90;67.80
42147;DHT22;27815;43.410;11.852;2023-12-29T21:17:27;11.70;67.90
42147;DHT22;27815;43.410;11.852;2023-12-29T21:21:41;11.50;68.40
42147;DHT22;27815;43.410;11.852;2023-12-29T21:25:43;11.30;68.70
42147;DHT22;27815;43.410;11.852;2023-12-29T21:29:46;11.30;68.90
42147;DHT22;27815;43.410;11.852;2023-12-29T21:33:56;11.10;69.10
42147;DHT22;27815;43.410;11.852;2023-12-29T21:37:59;11.10;69.40
42147;DHT22;27815;43.410;11.852;2023-12-29T21:42:02;11.10;69.40
42147;DHT22;27815;43.410;11.852;2023-12-29T21:46:05;11.10;69.50
42147;DHT22;27815;43.410;11.852;2023-12-29T21:50:10;11.20;69.50
42147;DHT22;27815;43.410;11.852;2023-12-29T21:54:12;11.20;69.60
42147;DHT22;27815;43.410;11.852;2023-12-29T21:58:15;11.10;69.70
42147;DHT22;27815;43.410;11.852;2023-12-29T22:02:18;11.10;69.90
42147;DHT22;27815;43.410;11.852;2023-12-29T22:06:21;11.20;69.90
42147;DHT22;27815;43.410;11.852;2023-12-29T22:10:24;11.20;70.00
42147;DHT22;27815;43.410;11.852;2023-12-29T22:14:27;11.20;70.00
42147;DHT22;27815;43.410;11.852;2023-12-29T22:18:30;11.30;70.10
42147;DHT22;27815;43.410;11.852;2023-12-29T22:22:33;11.20;70.20
42147;DHT22;27815;43.410;11.852;2023-12-29T22:26:36;11.20;70.30
42147;DHT22;27815;43.410;11.852;2023-12-29T22:30:39;11.20;70.30
42147;DHT22;27815;43.410;11.852;2023-12-29T22:34:42;11.20;70.50
42147;DHT22;27815;43.410;11.852;2023-12-29T22:38:46;11.10;70.50
42147;DHT22;27815;43.410;11.852;2023-12-29T22:42:50;11.10;70.50
42147;DHT22;27815;43.410;11.852;2023-12-29T22:46:53;11.10;70.60
42147;DHT22;27815;43.410;11.852;2023-12-29T22:50:59;11.10;70.60
42147;DHT22;27815;43.410;11.852;2023-12-29T22:55:03;11.10;70.90
42147;DHT22;27815;43.410;11.852;2023-12-29T22:59:06;11.10;70.90
42147;DHT22;27815;43.410;11.852;2023-12-29T23:03:09;11.10;70.90
42147;DHT22;27815;43.410;11.852;2023-12-29T23:07:12;11.10;70.90
42147;DHT22;27815;43.410;11.852;2023-12-29T23:11:15;11.00;71.00
42147;DHT22;27815;43.410;11.852;2023-12-29T23:15:18;11.10;71.00
42147;DHT22;27815;43.410;11.852;2023-12-29T23:19:20;11.10;71.00
42147;DHT22;27815;43.410;11.852;2023-12-29T23:23:23;11.00;71.10
42147;DHT22;27815;43.410;11.852;2023-12-29T23:27:26;10.90;71.20
42147;DHT22;27815;43.410;11.852;2023-12-29T23:31:29;11.00;71.30
42147;DHT22;27815;43.410;11.852;2023-12-29T23:35:32;11.00;71.30
42147;DHT22;27815;43.410;11.852;2023-12-29T23:39:35;11.00;71.30
42147;DHT22;27815;43.410;11.852;2023-12-29T23:43:38;11.00;71.30
42147;DHT22;27815;43.410;11.852;2023-12-29T23:47:41;10.90;71.30
42147;DHT22;27815;43.410;11.852;2023-12-29T23:51:45;10.90;71.50
42147;DHT22;27815;43.410;11.852;2023-12-29T23:55:48;10.80;71.70
42147;DHT22;27815;43.410;11.852;2023-12-29T23:59:51;10.80;71.90
